createdAt,value
2023-03-24T00:01:54.308Z,2.47
2023-03-24T00:04:43.278Z,5.15
2023-03-24T00:07:25.501Z,3.30
2023-03-24T00:10:15.360Z,4.68
2023-03-24T00:13:05.320Z,3.47
2023-03-24T00:15:48.801Z,3.90
2023-03-24T00:18:39.779Z,1.98
2023-03-24T00:21:30.445Z,4.82
2023-03-24T00:24:20.163Z,2.50
2023-03-24T00:27:04.311Z,4.75
2023-03-24T00:29:46.307Z,2.65
2023-03-24T00:32:37.283Z,4.38
2023-03-24T00:35:21.424Z,4.82
2023-03-24T00:38:10.382Z,2.80
2023-03-24T00:40:52.385Z,2.17
2023-03-24T00:43:41.275Z,2.72
2023-03-24T00:46:29.928Z,3.17
2023-03-24T00:49:22.259Z,2.90
2023-03-24T00:52:10.306Z,3.53
2023-03-24T00:55:01.274Z,2.65
2023-03-24T00:57:57.377Z,4.35
2023-03-24T01:00:42.670Z,2.75
2023-03-24T01:03:34.305Z,3.33
2023-03-24T01:06:16.526Z,2.80
2023-03-24T01:09:09.283Z,2.20
2023-03-24T01:11:51.879Z,3.45
2023-03-24T01:14:40.363Z,4.68
2023-03-24T01:17:25.526Z,3.05
2023-03-24T01:20:17.318Z,3.15
2023-03-24T01:23:00.562Z,1.90
2023-03-24T01:25:52.299Z,2.35
2023-03-24T01:28:35.791Z,2.20
2023-03-24T01:31:24.365Z,2.42
2023-03-24T01:34:06.637Z,3.28
2023-03-24T01:36:55.329Z,4.47
2023-03-24T01:39:37.599Z,3.13
2023-03-24T01:42:29.332Z,2.83
2023-03-24T01:46:03.408Z,3.85
2023-03-24T01:48:50.767Z,1.90
2023-03-24T01:51:42.355Z,4.95
2023-03-24T01:54:27.591Z,3.35
2023-03-24T01:57:23.320Z,3.58
2023-03-24T02:00:11.593Z,4.32
2023-03-24T02:03:23.334Z,3.75
2023-03-24T02:06:08.587Z,5.82
2023-03-24T02:09:03.361Z,4.25
2023-03-24T02:11:46.359Z,3.33
2023-03-24T02:14:35.318Z,2.88
2023-03-24T02:17:49.405Z,2.53
2023-03-24T02:21:00.671Z,3.53
2023-03-24T02:24:29.416Z,4.10
2023-03-24T02:27:25.310Z,3.33
2023-03-24T02:30:32.598Z,2.22
2023-03-24T02:34:11.433Z,1.55
2023-03-24T02:37:27.740Z,1.63
2023-03-24T02:40:45.485Z,1.55
2023-03-24T02:43:37.525Z,2.20
2023-03-24T02:46:32.456Z,1.98
2023-03-24T02:49:25.031Z,3.95
2023-03-24T02:52:16.344Z,1.38
2023-03-24T02:55:05.258Z,2.45
2023-03-24T02:57:59.368Z,6.03
2023-03-24T03:01:18.528Z,3.85
2023-03-24T03:04:29.302Z,2.17
2023-03-24T03:07:23.380Z,1.42
2023-03-24T03:10:09.824Z,1.33
2023-03-24T03:13:04.477Z,2.45
2023-03-24T03:15:58.390Z,2.95
2023-03-24T03:18:44.527Z,2.22
2023-03-24T03:21:38.353Z,3.75
2023-03-24T03:24:29.721Z,1.40
2023-03-24T03:27:16.430Z,2.47
2023-03-24T03:30:04.273Z,3.05
2023-03-24T03:33:00.441Z,3.65
2023-03-24T03:35:56.432Z,1.48
2023-03-24T03:38:48.100Z,1.85
2023-03-24T03:41:36.304Z,3.95
2023-03-24T03:44:18.613Z,6.28
2023-03-24T03:47:08.391Z,6.03
2023-03-24T03:49:53.554Z,4.85
2023-03-24T03:52:42.334Z,4.25
2023-03-24T03:55:31.333Z,6.70
2023-03-24T03:58:13.444Z,4.93
2023-03-24T04:01:13.345Z,2.50
2023-03-24T04:04:38.259Z,3.97
2023-03-24T04:08:04.371Z,7.55
2023-03-24T04:11:33.338Z,4.68
2023-03-24T04:14:52.434Z,4.32
2023-03-24T04:17:58.610Z,5.20
2023-03-24T04:21:08.331Z,4.15
2023-03-24T04:24:10.407Z,4.90
2023-03-24T04:27:00.803Z,5.93
2023-03-24T04:30:02.515Z,5.68
2023-03-24T04:32:55.415Z,8.30
2023-03-24T04:35:41.483Z,5.03
2023-03-24T04:38:52.437Z,8.35
2023-03-24T04:41:43.928Z,9.98
2023-03-24T04:44:41.368Z,4.60
2023-03-24T04:47:46.465Z,8.90
2023-03-24T04:50:55.371Z,7.80
2023-03-24T04:53:57.411Z,10.45
2023-03-24T04:56:48.678Z,8.98
2023-03-24T04:59:40.400Z,8.57
2023-03-24T05:02:23.677Z,9.63
2023-03-24T05:05:21.366Z,5.93
2023-03-24T05:08:04.087Z,8.20
2023-03-24T05:10:53.472Z,5.82
2023-03-24T05:13:36.628Z,16.33
2023-03-24T05:16:24.444Z,9.30
2023-03-24T05:19:15.386Z,6.55
2023-03-24T05:21:58.317Z,6.07
2023-03-24T05:24:47.344Z,10.23
2023-03-24T05:27:37.419Z,7.70
2023-03-24T05:30:53.361Z,10.18
2023-03-24T05:33:55.362Z,4.72
2023-03-24T05:36:40.802Z,3.25
2023-03-24T05:39:32.363Z,9.23
2023-03-24T05:42:24.410Z,6.93
2023-03-24T05:45:19.338Z,5.90
2023-03-24T05:48:02.722Z,6.90
2023-03-24T05:51:08.367Z,8.07
2023-03-24T05:53:52.068Z,8.95
2023-03-24T05:56:53.488Z,12.95
2023-03-24T05:59:39.266Z,11.07
2023-03-24T06:02:49.507Z,5.18
2023-03-24T06:05:46.220Z,7.13
2023-03-24T06:11:24.404Z,7.25
2023-03-24T06:14:12.724Z,8.32
2023-03-24T06:17:13.429Z,9.82
2023-03-24T06:20:05.277Z,7.70
2023-03-24T06:23:05.495Z,6.78
2023-03-24T06:26:05.445Z,8.43
2023-03-24T06:28:56.564Z,15.02
2023-03-24T06:31:49.417Z,8.32
2023-03-24T06:34:32.193Z,8.73
2023-03-24T06:37:44.372Z,7.65
2023-03-24T06:40:33.414Z,8.35
2023-03-24T06:43:16.429Z,10.15
2023-03-24T06:46:05.432Z,4.25
2023-03-24T06:48:57.420Z,6.10
2023-03-24T06:51:39.703Z,12.65
2023-03-24T06:54:31.443Z,6.65
2023-03-24T06:57:13.705Z,10.65
2023-03-24T07:00:25.514Z,7.80
2023-03-24T07:03:33.473Z,4.78
2023-03-24T07:06:24.495Z,8.75
2023-03-24T07:12:06.128Z,6.35
2023-03-24T07:14:54.494Z,8.50
2023-03-24T07:17:43.553Z,8.65
2023-03-24T07:20:43.901Z,5.32
2023-03-24T07:23:34.441Z,7.22
2023-03-24T07:26:28.771Z,4.53
2023-03-24T07:32:29.583Z,7.38
2023-03-24T07:35:13.468Z,9.18
2023-03-24T07:38:02.466Z,7.88
2023-03-24T07:40:50.529Z,8.52
2023-03-24T07:43:32.672Z,7.65
2023-03-24T07:46:41.444Z,12.55
2023-03-24T07:49:23.633Z,8.95
2023-03-24T07:52:18.428Z,7.82
2023-03-24T07:55:10.755Z,19.52
2023-03-24T07:58:02.504Z,15.55
2023-03-24T08:03:49.394Z,14.25
2023-03-24T08:06:57.437Z,24.25
2023-03-24T08:09:46.521Z,11.77
2023-03-24T08:12:28.609Z,12.38
2023-03-24T08:15:17.475Z,8.45
2023-03-24T08:17:59.864Z,6.35
2023-03-24T08:20:49.436Z,8.18
2023-03-24T08:23:44.491Z,8.23
2023-03-24T08:26:34.453Z,11.32
2023-03-24T08:29:16.735Z,7.35
2023-03-24T08:32:05.426Z,4.28
2023-03-24T08:34:47.621Z,7.25
2023-03-24T08:37:37.452Z,6.70
2023-03-24T08:40:23.434Z,6.82
2023-03-24T08:43:15.490Z,9.57
2023-03-24T08:45:57.664Z,5.43
2023-03-24T08:48:47.491Z,8.60
2023-03-24T08:51:29.765Z,6.75
2023-03-24T08:54:20.416Z,6.40
2023-03-24T08:57:02.810Z,6.97
2023-03-24T08:59:51.657Z,7.22
2023-03-24T09:02:34.536Z,12.50
2023-03-24T09:05:40.955Z,5.30
2023-03-24T09:08:34.452Z,9.32
2023-03-24T09:11:21.151Z,10.73
2023-03-24T09:14:09.458Z,11.27
2023-03-24T09:16:59.500Z,7.00
2023-03-24T09:19:41.711Z,6.30
2023-03-24T09:22:30.557Z,5.82
2023-03-24T09:25:20.707Z,4.50
2023-03-24T09:28:04.501Z,7.00
2023-03-24T09:30:53.646Z,5.30
2023-03-24T09:33:35.935Z,7.85
2023-03-24T09:36:24.511Z,6.50
2023-03-24T09:39:13.468Z,9.05
2023-03-24T09:41:56.803Z,10.30
2023-03-24T09:44:55.438Z,7.70
2023-03-24T09:47:42.053Z,11.27
2023-03-24T09:50:35.536Z,9.98
2023-03-24T09:53:29.380Z,8.30
2023-03-24T09:56:25.728Z,9.50
2023-03-24T09:59:13.598Z,7.07
2023-03-24T10:02:04.483Z,9.77
2023-03-24T10:04:53.475Z,7.90
2023-03-24T10:07:40.716Z,6.53
2023-03-24T10:10:37.550Z,8.23
2023-03-24T10:13:35.505Z,5.47
2023-03-24T10:16:22.621Z,7.47
2023-03-24T10:19:17.546Z,9.35
2023-03-24T10:22:06.992Z,7.70
2023-03-24T10:25:00.494Z,7.82
2023-03-24T10:27:53.547Z,3.90
2023-03-24T10:30:38.677Z,8.60
2023-03-24T10:33:27.497Z,6.85
2023-03-24T10:36:15.913Z,6.65
2023-03-24T10:39:16.356Z,8.65
2023-03-24T10:42:01.796Z,6.75
2023-03-24T10:44:50.545Z,8.57
2023-03-24T10:47:34.814Z,8.27
2023-03-24T10:50:23.509Z,9.38
2023-03-24T10:53:06.795Z,5.57
2023-03-24T10:55:57.606Z,10.05
2023-03-24T10:58:47.764Z,5.65
2023-03-24T11:01:37.598Z,3.95
2023-03-24T11:04:22.724Z,7.63
2023-03-24T11:07:15.582Z,8.90
2023-03-24T11:10:08.831Z,6.68
2023-03-24T11:13:10.572Z,6.50
2023-03-24T11:16:09.528Z,7.53
2023-03-24T11:18:58.420Z,6.00
2023-03-24T11:21:50.557Z,4.30
2023-03-24T11:24:43.673Z,7.03
2023-03-24T11:27:27.511Z,6.72
2023-03-24T11:30:15.669Z,4.97
2023-03-24T11:33:04.557Z,8.88
2023-03-24T11:35:52.794Z,3.03
2023-03-24T11:38:49.544Z,3.33
2023-03-24T11:41:31.892Z,7.78
2023-03-24T11:44:33.494Z,5.93
2023-03-24T11:47:30.631Z,11.85
2023-03-24T11:50:25.745Z,8.88
2023-03-24T11:53:20.504Z,6.57
2023-03-24T11:56:07.737Z,9.60
2023-03-24T11:58:58.495Z,4.93
2023-03-24T12:01:45.761Z,6.82
2023-03-24T12:04:49.600Z,5.85
2023-03-24T12:08:14.567Z,9.38
2023-03-24T12:11:07.913Z,8.57
2023-03-24T12:13:58.550Z,6.18
2023-03-24T12:16:51.904Z,9.00
2023-03-24T12:20:03.498Z,14.98
2023-03-24T12:23:09.526Z,8.75
2023-03-24T12:26:28.586Z,8.60
2023-03-24T12:29:36.605Z,4.47
2023-03-24T12:32:47.203Z,4.38
2023-03-24T12:35:49.707Z,4.50
2023-03-24T12:38:45.770Z,5.78
2023-03-24T12:41:53.502Z,7.25
2023-03-24T12:45:16.709Z,9.07
2023-03-24T12:48:35.497Z,5.05
2023-03-24T12:51:34.630Z,7.07
2023-03-24T12:54:33.792Z,7.25
2023-03-24T12:57:26.631Z,7.85
2023-03-24T13:00:15.126Z,5.50
2023-03-24T13:03:08.637Z,7.18
2023-03-24T13:05:56.702Z,6.78
2023-03-24T13:08:52.491Z,7.32
2023-03-24T13:11:47.578Z,7.95
2023-03-24T13:14:41.517Z,8.25
2023-03-24T13:17:31.913Z,8.43
2023-03-24T13:20:27.558Z,3.33
2023-03-24T13:23:41.664Z,4.63
2023-03-24T13:26:41.600Z,3.83
2023-03-24T13:30:13.683Z,5.15
2023-03-24T13:33:01.043Z,6.18
2023-03-24T13:36:22.756Z,1.98
2023-03-24T13:39:12.033Z,3.20
2023-03-24T13:42:04.637Z,6.13
2023-03-24T13:44:50.438Z,4.60
2023-03-24T13:47:40.626Z,3.28
2023-03-24T13:50:22.743Z,3.90
2023-03-24T13:53:19.523Z,3.95
2023-03-24T13:56:05.875Z,3.80
2023-03-24T13:59:19.546Z,5.47
2023-03-24T14:02:31.696Z,8.15
2023-03-24T14:05:15.743Z,3.58
2023-03-24T14:08:22.624Z,6.22
2023-03-24T14:11:04.829Z,3.90
2023-03-24T14:14:00.585Z,5.05
2023-03-24T14:16:57.869Z,4.20
2023-03-24T14:19:48.664Z,2.58
2023-03-24T14:22:36.409Z,7.22
2023-03-24T14:25:35.555Z,4.22
2023-03-24T14:28:38.675Z,5.72
2023-03-24T14:31:25.565Z,4.53
2023-03-24T14:34:27.529Z,5.43
2023-03-24T14:37:16.563Z,4.93
2023-03-24T14:39:59.827Z,5.45
2023-03-24T14:43:10.599Z,4.88
2023-03-24T14:46:11.480Z,9.02
2023-03-24T14:49:06.622Z,5.47
2023-03-24T14:51:59.645Z,2.35
2023-03-24T14:54:46.198Z,4.18
2023-03-24T14:57:38.565Z,3.05
2023-03-24T15:00:23.844Z,1.83
2023-03-24T15:03:17.630Z,4.40
2023-03-24T15:06:14.246Z,5.28
2023-03-24T15:09:05.584Z,4.13
2023-03-24T15:11:49.982Z,2.47
2023-03-24T15:14:39.606Z,4.32
2023-03-24T15:17:25.373Z,3.20
2023-03-24T15:20:14.613Z,2.38
2023-03-24T15:23:06.039Z,4.13
2023-03-24T15:25:56.164Z,4.15
2023-03-24T15:28:38.966Z,2.45
2023-03-24T15:31:29.679Z,4.80
2023-03-24T15:34:34.562Z,3.58
2023-03-24T15:37:29.116Z,3.72
2023-03-24T15:40:40.568Z,3.53
2023-03-24T15:43:28.444Z,2.20
2023-03-24T15:46:30.630Z,1.83
2023-03-24T15:49:12.872Z,5.10
2023-03-24T15:52:05.620Z,4.05
2023-03-24T15:54:58.605Z,4.72
2023-03-24T15:57:43.329Z,3.00
2023-03-24T16:00:33.585Z,3.10
2023-03-24T16:03:18.067Z,2.28
2023-03-24T16:06:07.558Z,2.78
2023-03-24T16:08:56.618Z,5.22
2023-03-24T16:11:38.929Z,2.05
2023-03-24T16:14:32.643Z,6.43
2023-03-24T16:17:14.847Z,5.10
2023-03-24T16:20:03.573Z,4.95
2023-03-24T16:22:46.721Z,2.50
2023-03-24T16:25:35.641Z,3.08
2023-03-24T16:28:26.598Z,7.20
2023-03-24T16:31:21.752Z,8.07
2023-03-24T16:34:10.753Z,2.88
2023-03-24T16:37:00.628Z,8.02
2023-03-24T16:39:42.855Z,4.35
2023-03-24T16:42:31.611Z,4.68
2023-03-24T16:45:14.931Z,5.75
2023-03-24T16:48:04.726Z,5.93
2023-03-24T16:50:56.666Z,2.67
2023-03-24T16:53:39.622Z,7.47
2023-03-24T16:56:30.688Z,6.35
2023-03-24T16:59:21.676Z,4.47
2023-03-24T17:02:09.568Z,4.32
2023-03-24T17:04:59.634Z,7.30
2023-03-24T17:07:41.807Z,2.70
2023-03-24T17:10:31.632Z,5.50
2023-03-24T17:13:20.700Z,1.67
2023-03-24T17:16:06.147Z,4.00
2023-03-24T17:18:54.656Z,1.92
2023-03-24T17:21:41.015Z,2.28
2023-03-24T17:24:30.720Z,2.38
2023-03-24T17:27:15.724Z,2.67
2023-03-24T17:30:04.692Z,1.83
2023-03-24T17:32:53.770Z,2.15
2023-03-24T17:35:35.869Z,2.05
2023-03-24T17:38:25.607Z,1.00
2023-03-24T17:41:07.837Z,2.20
2023-03-24T17:43:55.678Z,1.13
2023-03-24T17:46:38.148Z,0.93
2023-03-24T17:49:26.660Z,1.42
2023-03-24T17:52:08.927Z,2.78
2023-03-24T17:54:58.597Z,0.70
2023-03-24T17:57:47.712Z,2.88
2023-03-24T18:00:29.754Z,1.35
2023-03-24T18:03:18.697Z,1.55
2023-03-24T18:06:14.643Z,0.80
2023-03-24T18:08:59.897Z,3.22
2023-03-24T18:11:49.737Z,4.95
2023-03-24T18:14:31.988Z,3.95
2023-03-24T18:17:20.768Z,1.52
2023-03-24T18:20:16.662Z,2.88
2023-03-24T18:22:58.713Z,1.70
2023-03-24T18:25:47.655Z,4.28
2023-03-24T18:28:31.637Z,5.68
2023-03-24T18:31:24.649Z,2.22
2023-03-24T18:34:06.572Z,1.98
2023-03-24T18:36:56.635Z,3.63
2023-03-24T18:39:46.605Z,1.35
2023-03-24T18:42:28.959Z,2.38
2023-03-24T18:45:23.608Z,2.90
2023-03-24T18:48:06.035Z,3.85
2023-03-24T18:50:54.627Z,2.20
2023-03-24T18:53:43.611Z,2.22
2023-03-24T18:56:26.053Z,3.53
2023-03-24T18:59:15.694Z,1.30
2023-03-24T19:02:06.805Z,1.92
2023-03-24T19:04:49.830Z,2.47
2023-03-24T19:07:43.710Z,3.63
2023-03-24T19:10:32.641Z,5.13
2023-03-24T19:13:16.539Z,3.15
2023-03-24T19:16:06.756Z,4.93
2023-03-24T19:18:50.741Z,1.73
2023-03-24T19:21:39.626Z,3.90
2023-03-24T19:24:28.693Z,16.70
2023-03-24T19:27:11.269Z,13.07
2023-03-24T19:29:59.656Z,17.70
2023-03-24T19:32:51.744Z,11.73
2023-03-24T19:35:35.269Z,12.90
2023-03-24T19:38:23.784Z,8.52
2023-03-24T19:41:07.273Z,7.07
2023-03-24T19:43:55.740Z,8.15
2023-03-24T19:46:45.846Z,6.95
2023-03-24T19:49:27.940Z,8.55
2023-03-24T19:52:17.688Z,7.13
2023-03-24T19:55:06.711Z,8.85
2023-03-24T19:57:48.546Z,7.07
2023-03-24T20:00:37.653Z,8.20
2023-03-24T20:03:19.930Z,11.20
2023-03-24T20:06:08.714Z,5.00
2023-03-24T20:09:01.671Z,8.38
2023-03-24T20:11:43.926Z,5.38
2023-03-24T20:14:32.672Z,7.43
2023-03-24T20:17:21.799Z,4.75
2023-03-24T20:20:04.076Z,4.75
2023-03-24T20:22:55.694Z,7.28
2023-03-24T20:25:49.231Z,6.72
2023-03-24T20:28:30.738Z,5.35
2023-03-24T20:31:19.862Z,6.15
2023-03-24T20:34:01.955Z,4.55
2023-03-24T20:36:50.655Z,4.18
2023-03-24T20:39:33.296Z,4.72
2023-03-24T20:42:23.658Z,5.35
2023-03-24T20:45:12.674Z,6.00
2023-03-24T20:47:54.849Z,6.90
2023-03-24T20:50:43.726Z,3.22
2023-03-24T20:53:33.769Z,4.22
2023-03-24T20:56:18.885Z,5.47
2023-03-24T20:59:12.725Z,6.28
2023-03-24T21:01:54.941Z,4.63
2023-03-24T21:04:43.729Z,7.57
2023-03-24T21:07:32.691Z,3.58
2023-03-24T21:10:15.686Z,4.82
2023-03-24T21:13:08.762Z,4.57
2023-03-24T21:15:58.690Z,6.63
2023-03-24T21:18:42.712Z,4.35
2023-03-24T21:21:24.702Z,6.78
2023-03-24T21:24:20.688Z,3.05
2023-03-24T21:27:09.666Z,2.45
2023-03-24T21:29:58.710Z,2.90
2023-03-24T21:32:42.355Z,5.15
2023-03-24T21:35:31.815Z,5.63
2023-03-24T21:38:16.047Z,4.68
2023-03-24T21:41:11.696Z,2.72
2023-03-24T21:44:00.918Z,5.78
2023-03-24T21:46:43.200Z,2.90
2023-03-24T21:49:32.801Z,3.00
2023-03-24T21:52:18.347Z,4.00
2023-03-24T21:55:07.811Z,3.53
2023-03-24T21:57:56.733Z,2.85
2023-03-24T22:00:40.107Z,4.53
2023-03-24T22:03:29.920Z,5.18
2023-03-24T22:06:19.845Z,5.03
2023-03-24T22:09:06.682Z,5.65
2023-03-24T22:11:55.870Z,6.03
2023-03-24T22:14:37.999Z,3.28
2023-03-24T22:17:27.793Z,2.85
2023-03-24T22:20:16.723Z,7.10
2023-03-24T22:23:03.442Z,4.38
2023-03-24T22:25:54.454Z,5.45
2023-03-24T22:28:44.180Z,4.43
2023-03-24T22:31:26.151Z,3.55
2023-03-24T22:34:14.696Z,5.03
2023-03-24T22:36:57.091Z,4.07
2023-03-24T22:39:46.779Z,6.13
2023-03-24T22:42:35.732Z,5.97
2023-03-24T22:45:17.811Z,3.83
2023-03-24T22:48:06.824Z,2.83
2023-03-24T22:50:55.727Z,5.05
2023-03-24T22:53:47.862Z,2.95
2023-03-24T22:56:37.780Z,7.03
2023-03-24T22:59:20.009Z,4.18
2023-03-24T23:02:10.514Z,6.68
2023-03-24T23:04:59.818Z,7.90
2023-03-24T23:07:44.026Z,3.67
2023-03-24T23:10:32.683Z,4.93
2023-03-24T23:13:16.868Z,6.10
2023-03-24T23:16:05.803Z,2.25
2023-03-24T23:18:54.746Z,3.08
2023-03-24T23:21:37.318Z,3.13
2023-03-24T23:24:24.731Z,1.75
2023-03-24T23:27:13.956Z,4.05
2023-03-24T23:29:57.747Z,2.00
2023-03-24T23:32:47.865Z,2.17
2023-03-24T23:35:30.116Z,3.92
2023-03-24T23:38:18.714Z,3.40
2023-03-24T23:41:03.053Z,2.53
2023-03-24T23:43:51.845Z,2.75
2023-03-24T23:46:41.792Z,5.57
2023-03-24T23:49:23.861Z,2.15
2023-03-24T23:52:12.705Z,4.88
2023-03-24T23:55:00.733Z,2.90
2023-03-24T23:57:43.023Z,1.83
